createdAt,value
2023-04-07T00:00:46.789Z,28.63
2023-04-07T00:01:46.956Z,28.96
2023-04-07T00:02:46.171Z,29.28
2023-04-07T00:03:47.444Z,28.96
2023-04-07T00:04:45.750Z,28.96
2023-04-07T00:05:48.302Z,29.28
2023-04-07T00:06:45.953Z,28.96
2023-04-07T00:07:55.807Z,29.28
2023-04-07T00:08:46.373Z,29.28
2023-04-07T00:09:46.547Z,29.28
2023-04-07T00:10:46.650Z,28.96
2023-04-07T00:11:46.953Z,28.63
2023-04-07T00:12:49.106Z,29.28
2023-04-07T00:13:47.276Z,28.96
2023-04-07T00:14:47.548Z,29.28
2023-04-07T00:15:48.662Z,28.63
2023-04-07T00:16:47.901Z,29.28
2023-04-07T00:17:48.889Z,28.63
2023-04-07T00:18:48.036Z,28.31
2023-04-07T00:19:48.172Z,28.96
2023-04-07T00:21:25.620Z,28.63
2023-04-07T00:22:26.716Z,28.96
2023-04-07T00:23:26.834Z,28.63
2023-04-07T00:24:33.864Z,28.63
2023-04-07T00:25:27.337Z,28.63
2023-04-07T00:26:28.521Z,28.31
2023-04-07T00:27:26.654Z,28.63
2023-04-07T00:28:26.813Z,28.31
2023-04-07T00:29:27.156Z,28.31
2023-04-07T00:30:28.176Z,28.31
2023-04-07T00:31:29.411Z,28.63
2023-04-07T00:32:28.559Z,28.31
2023-04-07T00:33:27.740Z,28.31
2023-04-07T00:34:28.905Z,28.31
2023-04-07T00:35:29.138Z,28.31
2023-04-07T00:36:28.977Z,28.63
2023-04-07T00:37:28.643Z,28.31
2023-04-07T00:38:28.947Z,28.31
2023-04-07T00:39:29.126Z,28.63
2023-04-07T00:40:30.332Z,28.63
2023-04-07T00:41:30.514Z,28.63
2023-04-07T00:42:31.002Z,28.63
2023-04-07T00:43:30.692Z,28.31
2023-04-07T00:44:31.857Z,28.31
2023-04-07T00:45:31.189Z,28.96
2023-04-07T00:46:30.561Z,28.63
2023-04-07T00:47:31.829Z,28.96
2023-04-07T00:48:32.007Z,28.63
2023-04-07T00:49:31.840Z,28.96
2023-04-07T00:50:31.492Z,28.96
2023-04-07T00:51:31.820Z,28.96
2023-04-07T00:52:32.116Z,29.60
2023-04-07T00:53:32.351Z,28.63
2023-04-07T00:54:32.730Z,28.63
2023-04-07T00:55:33.992Z,29.28
2023-04-07T00:56:34.146Z,28.63
2023-04-07T00:57:35.359Z,28.63
2023-04-07T00:58:33.523Z,28.63
2023-04-07T00:59:33.671Z,28.63
2023-04-07T01:00:34.058Z,28.63
2023-04-07T01:01:34.344Z,28.63
2023-04-07T01:02:34.713Z,28.63
2023-04-07T01:03:35.179Z,28.96
2023-04-07T01:04:35.671Z,28.63
2023-04-07T01:05:37.805Z,28.96
2023-04-07T01:06:37.346Z,28.63
2023-04-07T01:07:36.557Z,28.96
2023-04-07T01:08:38.744Z,28.63
2023-04-07T01:09:37.065Z,28.96
2023-04-07T01:10:37.388Z,28.31
2023-04-07T01:11:37.713Z,28.63
2023-04-07T01:12:38.081Z,28.31
2023-04-07T01:13:38.514Z,28.96
2023-04-07T01:14:40.660Z,28.63
2023-04-07T01:15:40.097Z,28.31
2023-04-07T01:16:40.445Z,28.63
2023-04-07T01:17:41.504Z,29.28
2023-04-07T01:18:40.124Z,28.63
2023-04-07T01:19:39.766Z,28.63
2023-04-07T01:20:42.266Z,29.28
2023-04-07T01:21:40.531Z,32.18
2023-04-07T01:22:42.329Z,28.31
2023-04-07T01:23:41.016Z,28.31
2023-04-07T01:24:42.983Z,28.96
2023-04-07T01:25:42.721Z,28.96
2023-04-07T01:26:41.609Z,28.63
2023-04-07T01:27:41.773Z,28.63
2023-04-07T01:28:41.979Z,28.63
2023-04-07T01:29:43.105Z,28.63
2023-04-07T01:30:44.238Z,28.96
2023-04-07T01:31:43.406Z,28.63
2023-04-07T01:32:42.717Z,28.96
2023-04-07T01:33:45.376Z,28.96
2023-04-07T01:34:43.090Z,28.63
2023-04-07T01:35:43.353Z,28.63
2023-04-07T01:36:45.297Z,28.96
2023-04-07T01:37:43.993Z,28.63
2023-04-07T01:38:46.125Z,28.63
2023-04-07T01:39:44.514Z,28.96
2023-04-07T01:40:44.858Z,28.63
2023-04-07T01:41:45.317Z,28.63
2023-04-07T01:42:45.692Z,28.63
2023-04-07T01:43:46.365Z,28.63
2023-04-07T01:44:46.157Z,28.96
2023-04-07T01:45:46.299Z,28.31
2023-04-07T01:46:48.577Z,28.96
2023-04-07T01:47:47.809Z,29.28
2023-04-07T01:48:47.162Z,28.63
2023-04-07T01:49:48.954Z,28.96
2023-04-07T01:50:48.624Z,28.63
2023-04-07T01:51:47.933Z,28.63
2023-04-07T01:52:49.050Z,28.63
2023-04-07T01:53:48.255Z,28.63
2023-04-07T01:54:48.433Z,28.63
2023-04-07T01:55:48.770Z,28.31
2023-04-07T01:56:50.208Z,28.63
2023-04-07T01:57:50.886Z,28.63
2023-04-07T01:58:49.672Z,28.96
2023-04-07T01:59:49.945Z,28.63
2023-04-07T02:00:50.376Z,28.96
2023-04-07T02:01:50.594Z,28.96
2023-04-07T02:02:50.415Z,28.63
2023-04-07T02:03:50.929Z,29.28
2023-04-07T02:04:51.478Z,28.63
2023-04-07T02:05:52.697Z,28.63
2023-04-07T02:06:52.498Z,28.63
2023-04-07T02:07:54.189Z,28.63
2023-04-07T02:08:53.437Z,28.31
2023-04-07T02:09:52.193Z,28.63
2023-04-07T02:10:53.555Z,28.31
2023-04-07T02:11:52.788Z,28.96
2023-04-07T02:12:53.107Z,28.63
2023-04-07T02:13:53.588Z,28.63
2023-04-07T02:14:55.104Z,28.31
2023-04-07T02:15:53.807Z,28.96
2023-04-07T02:16:56.088Z,28.63
2023-04-07T02:17:55.597Z,28.96
2023-04-07T02:18:54.913Z,29.28
2023-04-07T02:19:56.044Z,28.63
2023-04-07T02:20:55.185Z,28.63
2023-04-07T02:21:58.458Z,28.63
2023-04-07T02:22:55.620Z,28.63
2023-04-07T02:23:55.996Z,28.96
2023-04-07T02:24:56.880Z,28.96
2023-04-07T02:25:58.108Z,29.92
2023-04-07T02:26:58.846Z,28.63
2023-04-07T02:27:57.761Z,28.63
2023-04-07T02:28:57.228Z,28.96
2023-04-07T02:29:58.741Z,28.63
2023-04-07T02:30:57.736Z,29.28
2023-04-07T02:31:58.543Z,29.28
2023-04-07T02:33:00.254Z,28.96
2023-04-07T02:33:58.574Z,28.63
2023-04-07T02:34:58.845Z,28.63
2023-04-07T02:36:00.977Z,28.63
2023-04-07T02:37:01.963Z,28.96
2023-04-07T02:37:59.770Z,28.63
2023-04-07T02:38:59.992Z,29.28
2023-04-07T02:40:02.160Z,28.96
2023-04-07T02:41:00.737Z,28.63
2023-04-07T02:42:00.452Z,28.63
2023-04-07T02:43:03.139Z,28.63
2023-04-07T02:44:00.811Z,28.31
2023-04-07T02:45:03.010Z,28.63
2023-04-07T02:46:04.111Z,28.63
2023-04-07T02:47:01.427Z,28.96
2023-04-07T02:48:03.916Z,28.96
2023-04-07T02:49:02.743Z,28.96
2023-04-07T02:50:03.879Z,28.96
2023-04-07T02:51:03.218Z,28.63
2023-04-07T02:52:03.212Z,28.31
2023-04-07T02:53:03.738Z,28.31
2023-04-07T02:54:03.532Z,28.96
2023-04-07T02:55:04.781Z,28.96
2023-04-07T02:56:04.053Z,29.28
2023-04-07T02:57:04.994Z,29.28
2023-04-07T02:58:03.936Z,28.63
2023-04-07T02:59:04.245Z,28.96
2023-04-07T03:00:05.857Z,28.63
2023-04-07T03:01:05.418Z,28.96
2023-04-07T03:02:05.814Z,28.63
2023-04-07T03:03:06.249Z,28.96
2023-04-07T03:04:06.459Z,28.63
2023-04-07T03:05:07.394Z,28.63
2023-04-07T03:07:08.140Z,28.63
2023-04-07T03:08:07.997Z,28.63
2023-04-07T03:09:09.350Z,28.63
2023-04-07T03:10:08.380Z,28.96
2023-04-07T03:11:09.934Z,28.96
2023-04-07T03:12:09.149Z,28.63
2023-04-07T03:13:08.989Z,28.63
2023-04-07T03:14:09.143Z,28.31
2023-04-07T03:15:10.129Z,28.63
2023-04-07T03:16:10.220Z,28.63
2023-04-07T03:17:10.030Z,28.96
2023-04-07T03:18:09.672Z,28.63
2023-04-07T03:19:09.807Z,28.63
2023-04-07T03:20:09.946Z,28.63
2023-04-07T03:21:10.867Z,28.63
2023-04-07T03:22:10.605Z,28.31
2023-04-07T03:23:14.871Z,28.31
2023-04-07T03:24:11.091Z,28.63
2023-04-07T03:25:11.283Z,28.63
2023-04-07T03:26:11.021Z,28.63
2023-04-07T03:27:11.717Z,28.31
2023-04-07T03:28:11.887Z,28.63
2023-04-07T03:29:11.101Z,28.63
2023-04-07T03:30:12.256Z,28.63
2023-04-07T03:31:12.144Z,28.96
2023-04-07T03:32:11.986Z,28.31
2023-04-07T03:33:15.053Z,28.63
2023-04-07T03:34:12.425Z,28.63
2023-04-07T03:35:12.769Z,28.31
2023-04-07T03:36:28.215Z,28.31
2023-04-07T03:37:13.992Z,28.63
2023-04-07T03:38:14.296Z,28.63
2023-04-07T03:39:13.436Z,28.96
2023-04-07T03:40:13.677Z,28.31
2023-04-07T03:41:13.982Z,28.31
2023-04-07T03:42:15.239Z,28.63
2023-04-07T03:43:15.417Z,28.63
2023-04-07T03:44:14.612Z,28.63
2023-04-07T03:45:14.766Z,28.96
2023-04-07T03:46:16.017Z,28.96
2023-04-07T03:47:15.387Z,28.96
2023-04-07T03:48:16.529Z,28.96
2023-04-07T03:49:15.727Z,28.63
2023-04-07T03:50:17.932Z,28.96
2023-04-07T03:51:16.224Z,28.96
2023-04-07T03:52:16.659Z,28.63
2023-04-07T03:53:18.061Z,28.96
2023-04-07T03:54:17.311Z,28.63
2023-04-07T03:55:17.504Z,28.96
2023-04-07T03:56:17.746Z,28.63
2023-04-07T03:57:18.025Z,29.28
2023-04-07T03:58:18.238Z,29.28
2023-04-07T03:59:18.494Z,28.96
2023-04-07T04:00:19.722Z,28.63
2023-04-07T04:01:18.882Z,28.96
2023-04-07T04:02:19.374Z,29.28
2023-04-07T04:03:20.623Z,28.63
2023-04-07T04:04:26.493Z,28.96
2023-04-07T04:05:19.780Z,28.96
2023-04-07T04:06:23.640Z,29.28
2023-04-07T04:07:20.148Z,29.60
2023-04-07T04:08:20.424Z,28.63
2023-04-07T04:09:22.676Z,28.96
2023-04-07T04:10:20.942Z,28.31
2023-04-07T04:11:22.266Z,28.63
2023-04-07T04:12:22.652Z,28.63
2023-04-07T04:13:23.517Z,28.63
2023-04-07T04:14:22.268Z,28.96
2023-04-07T04:15:22.627Z,28.31
2023-04-07T04:16:27.285Z,28.63
2023-04-07T04:17:23.207Z,28.63
2023-04-07T04:18:23.709Z,28.63
2023-04-07T04:19:23.961Z,28.63
2023-04-07T04:20:24.289Z,28.63
2023-04-07T04:21:28.874Z,28.96
2023-04-07T04:22:24.596Z,28.63
2023-04-07T04:23:24.836Z,28.63
2023-04-07T04:24:25.102Z,28.96
2023-04-07T04:25:26.317Z,28.63
2023-04-07T04:26:29.515Z,28.96
2023-04-07T04:27:25.729Z,28.31
2023-04-07T04:28:25.918Z,28.31
2023-04-07T04:29:26.118Z,28.63
2023-04-07T04:30:26.531Z,28.63
2023-04-07T04:31:26.557Z,29.28
2023-04-07T04:32:28.784Z,28.31
2023-04-07T04:33:27.233Z,28.63
2023-04-07T04:34:27.161Z,28.31
2023-04-07T04:35:29.126Z,28.63
2023-04-07T04:37:27.617Z,28.31
2023-04-07T04:38:28.307Z,28.31
2023-04-07T04:39:28.982Z,28.31
2023-04-07T04:40:28.610Z,28.63
2023-04-07T04:41:30.315Z,28.31
2023-04-07T04:42:28.532Z,28.63
2023-04-07T04:43:32.284Z,28.63
2023-04-07T04:44:28.980Z,28.63
2023-04-07T04:45:31.182Z,28.63
2023-04-07T04:46:30.533Z,28.31
2023-04-07T04:47:29.821Z,28.63
2023-04-07T04:48:30.039Z,28.63
2023-04-07T04:49:32.241Z,28.96
2023-04-07T04:50:30.650Z,28.96
2023-04-07T04:51:33.849Z,28.63
2023-04-07T04:52:32.996Z,28.63
2023-04-07T04:53:31.345Z,28.63
2023-04-07T04:54:31.545Z,28.63
2023-04-07T04:55:34.662Z,28.63
2023-04-07T04:56:35.970Z,28.63
2023-04-07T04:57:34.157Z,28.96
2023-04-07T04:58:32.464Z,28.63
2023-04-07T04:59:32.673Z,28.63
2023-04-07T05:00:32.982Z,28.63
2023-04-07T05:01:34.367Z,28.63
2023-04-07T05:02:36.486Z,28.31
2023-04-07T05:03:36.344Z,28.63
2023-04-07T05:04:34.880Z,28.63
2023-04-07T05:05:37.370Z,28.63
2023-04-07T05:06:36.541Z,28.96
2023-04-07T05:07:34.679Z,28.96
2023-04-07T05:08:34.870Z,28.63
2023-04-07T05:09:35.097Z,28.96
2023-04-07T05:10:35.276Z,28.96
2023-04-07T05:11:35.594Z,28.31
2023-04-07T05:12:36.783Z,28.31
2023-04-07T05:13:36.001Z,28.63
2023-04-07T05:14:36.333Z,28.63
2023-04-07T05:15:37.614Z,28.31
2023-04-07T05:16:38.409Z,28.63
2023-04-07T05:17:40.184Z,28.63
2023-04-07T05:18:38.354Z,28.63
2023-04-07T05:19:37.534Z,28.96
2023-04-07T05:20:38.755Z,28.96
2023-04-07T05:21:39.001Z,28.31
2023-04-07T05:22:38.771Z,28.31
2023-04-07T05:23:38.418Z,28.63
2023-04-07T05:24:43.112Z,28.31
2023-04-07T05:25:38.855Z,28.96
2023-04-07T05:26:40.700Z,28.63
2023-04-07T05:27:39.378Z,28.96
2023-04-07T05:28:39.593Z,28.96
2023-04-07T05:29:39.797Z,28.31
2023-04-07T05:30:39.987Z,28.63
2023-04-07T05:31:41.682Z,28.63
2023-04-07T05:32:40.374Z,28.96
2023-04-07T05:33:40.670Z,28.31
2023-04-07T05:34:40.859Z,28.96
2023-04-07T05:35:43.089Z,28.63
2023-04-07T05:36:43.862Z,28.63
2023-04-07T05:37:41.544Z,28.63
2023-04-07T05:38:42.407Z,28.96
2023-04-07T05:39:42.625Z,28.63
2023-04-07T05:40:43.877Z,28.63
2023-04-07T05:41:43.692Z,28.31
2023-04-07T05:42:44.901Z,28.63
2023-04-07T05:43:44.064Z,28.63
2023-04-07T05:44:43.399Z,28.63
2023-04-07T05:45:45.008Z,28.63
2023-04-07T05:46:43.747Z,28.96
2023-04-07T05:47:44.838Z,28.31
2023-04-07T05:48:46.032Z,28.31
2023-04-07T05:49:44.260Z,28.63
2023-04-07T05:50:46.601Z,28.96
2023-04-07T05:51:46.240Z,28.31
2023-04-07T05:52:45.101Z,28.63
2023-04-07T05:53:45.325Z,28.63
2023-04-07T05:54:45.574Z,28.96
2023-04-07T05:55:46.753Z,28.63
2023-04-07T05:56:48.338Z,29.28
2023-04-07T05:57:46.131Z,28.96
2023-04-07T05:58:46.401Z,28.63
2023-04-07T05:59:46.769Z,28.31
2023-04-07T06:00:47.032Z,28.96
2023-04-07T06:01:48.191Z,28.96
2023-04-07T06:02:48.670Z,29.28
2023-04-07T06:03:49.253Z,29.28
2023-04-07T06:04:48.847Z,29.28
2023-04-07T06:05:49.143Z,29.28
2023-04-07T06:06:50.336Z,28.31
2023-04-07T06:07:48.585Z,28.31
2023-04-07T06:08:48.727Z,28.63
2023-04-07T06:09:48.933Z,28.31
2023-04-07T06:10:49.222Z,28.63
2023-04-07T06:11:49.453Z,28.96
2023-04-07T06:12:50.861Z,28.96
2023-04-07T06:13:51.979Z,28.96
2023-04-07T06:14:50.172Z,28.63
2023-04-07T06:16:01.885Z,28.63
2023-04-07T06:16:50.639Z,29.28
2023-04-07T06:17:50.907Z,28.96
2023-04-07T06:18:51.258Z,28.63
2023-04-07T06:19:51.388Z,28.96
2023-04-07T06:20:51.514Z,28.96
2023-04-07T06:21:51.717Z,29.28
2023-04-07T06:22:51.870Z,28.96
2023-04-07T06:23:52.614Z,28.63
2023-04-07T06:24:53.738Z,28.63
2023-04-07T06:25:53.428Z,28.31
2023-04-07T06:26:53.118Z,28.63
2023-04-07T06:27:53.051Z,28.63
2023-04-07T06:28:53.285Z,28.63
2023-04-07T06:29:53.422Z,28.96
2023-04-07T06:30:53.676Z,28.63
2023-04-07T06:31:53.941Z,28.31
2023-04-07T06:32:54.144Z,28.96
2023-04-07T06:33:54.598Z,28.63
2023-04-07T06:34:56.708Z,28.63
2023-04-07T06:36:00.561Z,28.96
2023-04-07T06:36:58.075Z,28.63
2023-04-07T06:37:56.912Z,28.63
2023-04-07T06:38:58.403Z,28.63
2023-04-07T06:39:56.273Z,28.63
2023-04-07T06:40:58.424Z,28.31
2023-04-07T06:41:59.097Z,28.63
2023-04-07T06:42:56.748Z,28.96
2023-04-07T06:43:56.912Z,28.63
2023-04-07T06:44:59.058Z,28.96
2023-04-07T06:45:58.918Z,28.96
2023-04-07T06:46:57.643Z,28.96
2023-04-07T06:47:57.932Z,29.28
2023-04-07T06:48:58.117Z,28.96
2023-04-07T06:49:58.268Z,29.28
2023-04-07T06:50:58.484Z,29.60
2023-04-07T06:51:58.656Z,28.96
2023-04-07T06:52:58.774Z,29.28
2023-04-07T06:53:59.096Z,28.96
2023-04-07T06:54:59.304Z,29.28
2023-04-07T06:56:01.417Z,29.28
2023-04-07T06:57:01.688Z,28.96
2023-04-07T06:57:59.918Z,29.28
2023-04-07T06:59:02.147Z,29.28
2023-04-07T07:00:01.869Z,28.96
2023-04-07T07:01:01.498Z,28.31
2023-04-07T07:02:03.855Z,28.31
2023-04-07T07:03:02.809Z,28.31
2023-04-07T07:04:01.797Z,28.63
2023-04-07T07:05:03.550Z,28.31
2023-04-07T07:07:02.497Z,28.63
2023-04-07T07:08:02.774Z,28.96
2023-04-07T07:09:04.900Z,28.96
2023-04-07T07:10:03.999Z,28.96
2023-04-07T07:11:03.148Z,28.96
2023-04-07T07:12:04.321Z,28.96
2023-04-07T07:13:04.522Z,28.96
2023-04-07T07:14:03.650Z,28.96
2023-04-07T07:15:05.822Z,29.28
2023-04-07T07:16:07.074Z,29.28
2023-04-07T07:17:04.422Z,28.96
2023-04-07T07:18:04.704Z,29.60
2023-04-07T07:19:04.962Z,28.96
2023-04-07T07:20:05.188Z,29.28
2023-04-07T07:21:05.438Z,29.28
2023-04-07T07:22:07.149Z,29.28
2023-04-07T07:23:07.839Z,28.96
2023-04-07T07:24:07.966Z,28.96
2023-04-07T07:25:08.117Z,29.28
2023-04-07T07:26:07.834Z,28.96
2023-04-07T07:27:08.522Z,29.28
2023-04-07T07:28:06.735Z,29.60
2023-04-07T07:29:06.944Z,29.60
2023-04-07T07:30:09.073Z,29.92
2023-04-07T07:31:09.252Z,30.57
2023-04-07T07:32:07.441Z,30.24
2023-04-07T07:33:07.692Z,30.24
2023-04-07T07:34:09.870Z,29.92
2023-04-07T07:35:09.968Z,29.60
2023-04-07T07:36:16.734Z,28.63
2023-04-07T07:37:10.390Z,29.28
2023-04-07T07:38:08.595Z,29.60
2023-04-07T07:39:08.724Z,28.96
2023-04-07T07:40:09.014Z,29.28
2023-04-07T07:41:09.261Z,29.28
2023-04-07T07:42:11.406Z,29.60
2023-04-07T07:43:09.593Z,29.60
2023-04-07T07:44:09.774Z,29.28
2023-04-07T07:45:11.923Z,29.60
2023-04-07T07:46:11.324Z,30.57
2023-04-07T07:47:10.510Z,29.60
2023-04-07T07:48:10.735Z,29.60
2023-04-07T07:49:10.857Z,29.60
2023-04-07T07:50:11.027Z,29.60
2023-04-07T07:51:13.312Z,29.92
2023-04-07T07:52:11.466Z,30.24
2023-04-07T07:53:11.597Z,29.60
2023-04-07T07:54:11.761Z,28.96
2023-04-07T07:55:13.512Z,28.96
2023-04-07T07:56:13.146Z,28.96
2023-04-07T07:57:12.389Z,29.28
2023-04-07T07:58:12.605Z,28.96
2023-04-07T07:59:12.720Z,28.96
2023-04-07T08:00:13.004Z,29.28
2023-04-07T08:01:13.218Z,28.63
2023-04-07T08:02:15.494Z,28.96
2023-04-07T08:03:13.840Z,28.96
2023-04-07T08:04:14.111Z,28.96
2023-04-07T08:05:16.286Z,28.96
2023-04-07T08:06:16.611Z,28.96
2023-04-07T08:07:14.787Z,29.28
2023-04-07T08:08:14.962Z,28.96
2023-04-07T08:09:15.115Z,28.96
2023-04-07T08:10:15.327Z,29.60
2023-04-07T08:11:15.443Z,29.28
2023-04-07T08:12:15.617Z,29.28
2023-04-07T08:13:16.159Z,29.28
2023-04-07T08:14:16.290Z,29.28
2023-04-07T08:15:19.435Z,29.60
2023-04-07T08:16:18.606Z,29.28
2023-04-07T08:17:16.856Z,29.28
2023-04-07T08:18:17.164Z,29.60
2023-04-07T08:19:17.297Z,29.60
2023-04-07T08:20:18.375Z,29.28
2023-04-07T08:21:17.754Z,29.60
2023-04-07T08:22:18.015Z,30.24
2023-04-07T08:23:19.178Z,29.92
2023-04-07T08:24:18.402Z,29.60
2023-04-07T08:25:18.537Z,30.24
2023-04-07T08:26:20.545Z,29.92
2023-04-07T08:27:20.662Z,29.92
2023-04-07T08:28:18.876Z,30.24
2023-04-07T08:29:19.069Z,29.60
2023-04-07T08:30:19.200Z,29.60
2023-04-07T08:31:19.457Z,29.28
2023-04-07T08:32:20.609Z,29.28
2023-04-07T08:33:20.372Z,29.60
2023-04-07T08:34:21.983Z,29.92
2023-04-07T08:35:20.143Z,29.60
2023-04-07T08:36:22.413Z,29.28
2023-04-07T08:37:20.679Z,29.92
2023-04-07T08:38:20.910Z,29.60
2023-04-07T08:39:22.994Z,29.60
2023-04-07T08:40:23.199Z,29.60
2023-04-07T08:41:22.156Z,29.60
2023-04-07T08:42:21.971Z,29.28
2023-04-07T08:43:23.026Z,30.24
2023-04-07T08:44:24.142Z,29.60
2023-04-07T08:45:24.290Z,29.92
2023-04-07T08:46:24.516Z,29.28
2023-04-07T08:47:22.757Z,29.28
2023-04-07T08:48:22.941Z,29.92
2023-04-07T08:49:23.056Z,29.60
2023-04-07T08:50:25.168Z,29.60
2023-04-07T08:51:23.378Z,29.28
2023-04-07T08:52:23.571Z,29.60
2023-04-07T08:53:23.769Z,29.60
2023-04-07T08:54:25.913Z,29.28
2023-04-07T08:55:26.038Z,29.60
2023-04-07T08:56:25.133Z,29.60
2023-04-07T08:57:26.250Z,29.60
2023-04-07T08:58:24.409Z,30.24
2023-04-07T08:59:25.566Z,29.92
2023-04-07T09:00:24.806Z,29.60
2023-04-07T09:01:26.052Z,29.92
2023-04-07T09:02:25.557Z,29.60
2023-04-07T09:03:26.313Z,29.28
2023-04-07T09:04:26.503Z,29.60
2023-04-07T09:05:27.192Z,29.60
2023-04-07T09:06:27.242Z,29.60
2023-04-07T09:07:25.840Z,29.92
2023-04-07T09:08:27.499Z,29.92
2023-04-07T09:09:26.157Z,29.92
2023-04-07T09:10:26.895Z,29.92
2023-04-07T09:11:26.604Z,29.60
2023-04-07T09:12:26.810Z,29.92
2023-04-07T09:13:28.983Z,29.92
2023-04-07T09:14:29.204Z,30.24
2023-04-07T09:15:27.396Z,29.92
2023-04-07T09:16:27.559Z,30.24
2023-04-07T09:17:29.207Z,30.24
2023-04-07T09:18:27.894Z,29.92
2023-04-07T09:19:28.954Z,30.24
2023-04-07T09:20:28.120Z,30.89
2023-04-07T09:21:30.214Z,30.89
2023-04-07T09:22:30.346Z,30.89
2023-04-07T09:23:29.178Z,30.57
2023-04-07T09:24:28.820Z,30.57
2023-04-07T09:25:29.939Z,30.57
2023-04-07T09:26:31.044Z,30.57
2023-04-07T09:27:31.145Z,30.57
2023-04-07T09:28:29.246Z,30.24
2023-04-07T09:29:29.394Z,30.57
2023-04-07T09:30:29.560Z,29.92
2023-04-07T09:31:31.172Z,29.92
2023-04-07T09:32:29.927Z,30.24
2023-04-07T09:33:30.195Z,29.92
2023-04-07T09:34:32.341Z,30.57
2023-04-07T09:35:30.717Z,30.24
2023-04-07T09:36:32.976Z,29.60
2023-04-07T09:37:31.911Z,30.24
2023-04-07T09:38:32.521Z,29.92
2023-04-07T09:39:33.612Z,29.92
2023-04-07T09:40:31.768Z,30.57
2023-04-07T09:41:33.869Z,30.24
2023-04-07T09:42:32.949Z,30.89
2023-04-07T09:43:33.663Z,31.21
2023-04-07T09:44:32.330Z,30.57
2023-04-07T09:45:35.721Z,30.57
2023-04-07T09:46:32.974Z,30.89
2023-04-07T09:47:33.200Z,30.24
2023-04-07T09:48:34.838Z,29.92
2023-04-07T09:49:33.442Z,29.60
2023-04-07T09:50:33.634Z,29.92
2023-04-07T09:51:34.640Z,30.24
2023-04-07T09:52:34.216Z,30.24
2023-04-07T09:53:35.843Z,30.89
2023-04-07T09:54:35.972Z,30.57
2023-04-07T09:55:35.132Z,30.24
2023-04-07T09:56:36.220Z,30.24
2023-04-07T09:57:34.362Z,30.24
2023-04-07T09:58:34.566Z,30.24
2023-04-07T09:59:34.754Z,30.57
2023-04-07T10:00:34.862Z,30.57
2023-04-07T10:01:37.092Z,30.24
2023-04-07T10:02:35.356Z,30.89
2023-04-07T10:03:37.548Z,30.57
2023-04-07T10:04:35.799Z,30.57
2023-04-07T10:05:37.926Z,30.57
2023-04-07T10:06:37.597Z,30.57
2023-04-07T10:07:36.218Z,30.57
2023-04-07T10:08:38.448Z,30.57
2023-04-07T10:09:36.527Z,30.57
2023-04-07T10:10:38.587Z,30.89
2023-04-07T10:11:37.639Z,30.57
2023-04-07T10:12:36.743Z,30.57
2023-04-07T10:13:36.854Z,30.89
2023-04-07T10:14:40.319Z,30.57
2023-04-07T10:15:39.091Z,29.92
2023-04-07T10:16:39.171Z,29.92
2023-04-07T10:17:37.316Z,30.24
2023-04-07T10:18:37.467Z,30.24
2023-04-07T10:19:37.561Z,30.24
2023-04-07T10:20:37.659Z,30.57
2023-04-07T10:21:37.772Z,30.24
2023-04-07T10:22:38.117Z,30.24
2023-04-07T10:23:38.245Z,30.57
2023-04-07T10:24:38.341Z,30.24
2023-04-07T10:25:41.293Z,30.89
2023-04-07T10:26:40.078Z,30.89
2023-04-07T10:27:40.830Z,30.57
2023-04-07T10:28:40.321Z,30.24
2023-04-07T10:29:38.940Z,30.89
2023-04-07T10:30:41.011Z,30.89
2023-04-07T10:31:39.299Z,30.24
2023-04-07T10:32:39.244Z,29.92
2023-04-07T10:33:40.348Z,30.57
2023-04-07T10:34:42.161Z,31.21
2023-04-07T10:35:40.407Z,30.89
2023-04-07T10:36:43.001Z,30.57
2023-04-07T10:37:40.157Z,30.57
2023-04-07T10:38:42.700Z,30.89
2023-04-07T10:39:40.542Z,30.89
2023-04-07T10:40:40.980Z,31.21
2023-04-07T10:41:43.153Z,30.89
2023-04-07T10:42:41.254Z,30.89
2023-04-07T10:43:41.531Z,31.21
2023-04-07T10:44:41.648Z,30.89
2023-04-07T10:45:41.990Z,30.89
2023-04-07T10:46:44.259Z,30.89
2023-04-07T10:47:44.520Z,30.57
2023-04-07T10:48:44.666Z,30.89
2023-04-07T10:49:42.853Z,31.21
2023-04-07T10:50:43.026Z,30.57
2023-04-07T10:51:44.511Z,31.21
2023-04-07T10:52:45.056Z,31.86
2023-04-07T10:53:43.137Z,31.21
2023-04-07T10:54:44.739Z,30.89
2023-04-07T10:55:43.356Z,30.89
2023-04-07T10:56:43.472Z,30.89
2023-04-07T10:57:44.437Z,30.89
2023-04-07T10:58:43.488Z,31.21
2023-04-07T10:59:43.587Z,31.21
2023-04-07T11:00:43.774Z,30.89
2023-04-07T11:01:44.061Z,30.89
2023-04-07T11:02:44.626Z,31.53
2023-04-07T11:03:44.522Z,31.53
2023-04-07T11:04:47.030Z,31.21
2023-04-07T11:05:46.879Z,31.21
2023-04-07T11:06:47.039Z,31.53
2023-04-07T11:07:47.059Z,31.53
2023-04-07T11:08:47.441Z,31.86
2023-04-07T11:09:45.670Z,31.86
2023-04-07T11:10:45.906Z,31.21
2023-04-07T11:11:48.016Z,31.86
2023-04-07T11:12:46.076Z,31.53
2023-04-07T11:13:48.655Z,30.89
2023-04-07T11:14:46.551Z,31.21
2023-04-07T11:15:46.720Z,31.21
2023-04-07T11:16:46.827Z,30.89
2023-04-07T11:17:47.095Z,31.21
2023-04-07T11:18:47.244Z,31.21
2023-04-07T11:19:48.739Z,31.53
2023-04-07T11:20:48.114Z,31.53
2023-04-07T11:21:47.689Z,31.53
2023-04-07T11:22:49.766Z,31.53
2023-04-07T11:23:50.704Z,31.53
2023-04-07T11:24:50.032Z,31.53
2023-04-07T11:25:50.190Z,30.89
2023-04-07T11:26:50.493Z,31.21
2023-04-07T11:27:48.375Z,30.89
2023-04-07T11:28:48.482Z,32.18
2023-04-07T11:29:48.638Z,31.53
2023-04-07T11:30:48.827Z,30.89
2023-04-07T11:31:49.051Z,31.53
2023-04-07T11:32:49.365Z,31.86
2023-04-07T11:33:49.726Z,31.53
2023-04-07T11:34:51.354Z,31.21
2023-04-07T11:35:51.598Z,32.18
2023-04-07T11:36:52.215Z,32.50
2023-04-07T11:37:49.867Z,33.14
2023-04-07T11:38:50.038Z,31.53
2023-04-07T11:39:52.215Z,31.53
2023-04-07T11:40:50.318Z,32.50
2023-04-07T11:41:50.423Z,32.18
2023-04-07T11:42:50.514Z,32.18
2023-04-07T11:43:50.723Z,31.86
2023-04-07T11:44:50.822Z,31.86
2023-04-07T11:45:50.992Z,31.53
2023-04-07T11:46:51.093Z,32.18
2023-04-07T11:47:51.357Z,32.82
2023-04-07T11:48:51.457Z,32.82
2023-04-07T11:49:53.524Z,32.18
2023-04-07T11:50:52.441Z,32.50
2023-04-07T11:51:54.003Z,32.18
2023-04-07T11:52:52.115Z,32.18
2023-04-07T11:53:52.258Z,32.82
2023-04-07T11:54:52.335Z,31.86
2023-04-07T11:55:54.450Z,32.18
2023-04-07T11:56:54.475Z,31.86
2023-04-07T11:57:52.670Z,31.86
2023-04-07T11:58:54.812Z,32.18
2023-04-07T11:59:52.905Z,32.50
2023-04-07T12:00:53.020Z,32.18
2023-04-07T12:01:57.541Z,31.86
2023-04-07T12:02:53.882Z,32.18
2023-04-07T12:03:55.766Z,31.86
2023-04-07T12:04:55.972Z,32.18
2023-04-07T12:05:56.714Z,31.86
2023-04-07T12:06:56.296Z,31.86
2023-04-07T12:07:54.489Z,32.18
2023-04-07T12:08:54.588Z,32.18
2023-04-07T12:09:54.958Z,32.82
2023-04-07T12:10:57.092Z,32.82
2023-04-07T12:11:57.030Z,32.82
2023-04-07T12:12:58.177Z,33.14
2023-04-07T12:13:57.986Z,32.82
2023-04-07T12:14:56.110Z,32.82
2023-04-07T12:15:57.182Z,32.18
2023-04-07T12:16:57.934Z,32.50
2023-04-07T12:17:57.242Z,32.82
2023-04-07T12:18:56.387Z,33.79
2023-04-07T12:19:56.477Z,32.82
2023-04-07T12:20:57.607Z,32.50
2023-04-07T12:21:56.690Z,32.50
2023-04-07T12:22:56.787Z,32.82
2023-04-07T12:23:58.304Z,33.14
2023-04-07T12:24:56.910Z,32.82
2023-04-07T12:25:59.146Z,32.50
2023-04-07T12:26:59.227Z,32.50
2023-04-07T12:27:57.297Z,32.82
2023-04-07T12:28:57.421Z,33.47
2023-04-07T12:30:02.550Z,32.18
2023-04-07T12:30:58.548Z,32.18
2023-04-07T12:31:59.682Z,32.82
2023-04-07T12:32:58.979Z,32.50
2023-04-07T12:33:58.172Z,33.14
2023-04-07T12:34:58.295Z,32.50
2023-04-07T12:36:00.381Z,32.50
2023-04-07T12:37:00.024Z,32.18
2023-04-07T12:37:58.608Z,32.82
2023-04-07T12:39:00.163Z,32.82
2023-04-07T12:40:00.290Z,32.82
2023-04-07T12:40:58.896Z,33.14
2023-04-07T12:41:59.090Z,32.82
2023-04-07T12:42:59.224Z,32.50
2023-04-07T12:43:59.351Z,32.50
2023-04-07T12:45:01.065Z,32.82
2023-04-07T12:46:00.417Z,32.50
2023-04-07T12:47:02.028Z,32.50
2023-04-07T12:48:02.161Z,32.82
2023-04-07T12:49:00.320Z,32.50
2023-04-07T12:50:01.271Z,32.50
2023-04-07T12:51:02.408Z,32.82
2023-04-07T12:52:01.415Z,33.14
2023-04-07T12:53:02.016Z,33.47
2023-04-07T12:54:00.641Z,33.47
2023-04-07T12:55:01.644Z,34.11
2023-04-07T12:56:02.271Z,33.14
2023-04-07T12:57:02.926Z,32.82
2023-04-07T12:58:02.512Z,33.14
2023-04-07T12:59:02.007Z,33.14